createdAt,value
2023-03-15T00:02:11.078Z,12.60
2023-03-15T00:04:39.123Z,9.90
2023-03-15T00:07:07.042Z,10.00
2023-03-15T00:09:35.281Z,14.20
2023-03-15T00:12:07.376Z,10.00
2023-03-15T00:14:36.837Z,12.20
2023-03-15T00:17:04.811Z,12.60
2023-03-15T00:19:40.808Z,12.20
2023-03-15T00:22:09.038Z,12.20
2023-03-15T00:24:37.101Z,12.50
2023-03-15T00:27:06.193Z,10.40
2023-03-15T00:29:34.109Z,8.00
2023-03-15T00:32:02.176Z,12.10
2023-03-15T00:34:32.168Z,10.80
2023-03-15T00:37:00.265Z,11.70
2023-03-15T00:39:28.550Z,10.20
2023-03-15T00:41:59.772Z,11.60
2023-03-15T00:44:28.256Z,11.00
2023-03-15T00:46:56.344Z,12.80
2023-03-15T00:49:24.400Z,8.00
2023-03-15T00:51:54.962Z,11.20
2023-03-15T00:54:24.021Z,10.00
2023-03-15T00:56:52.313Z,14.50
2023-03-15T00:59:22.220Z,10.70
2023-03-15T01:01:51.785Z,14.50
2023-03-15T01:04:21.192Z,9.10
2023-03-15T01:06:49.555Z,10.10
2023-03-15T01:09:17.582Z,7.60
2023-03-15T01:11:47.435Z,9.40
2023-03-15T01:14:18.942Z,12.10
2023-03-15T01:16:48.400Z,7.60
2023-03-15T01:19:16.326Z,10.10
2023-03-15T01:21:47.997Z,13.00
2023-03-15T01:24:18.507Z,11.60
2023-03-15T01:26:47.029Z,8.90
2023-03-15T01:29:18.042Z,13.50
2023-03-15T01:31:46.018Z,8.30
2023-03-15T01:34:13.987Z,10.30
2023-03-15T01:36:41.919Z,10.50
2023-03-15T01:39:09.893Z,10.00
2023-03-15T01:41:44.188Z,9.20
2023-03-15T01:44:16.061Z,9.40
2023-03-15T01:46:45.125Z,9.30
2023-03-15T01:49:18.086Z,9.90
2023-03-15T01:51:47.626Z,9.30
2023-03-15T01:54:15.726Z,12.30
2023-03-15T01:56:58.008Z,8.30
2023-03-15T01:59:30.847Z,14.10
2023-03-15T02:01:59.001Z,8.30
2023-03-15T02:04:54.105Z,11.00
2023-03-15T02:07:22.503Z,9.90
2023-03-15T02:09:52.242Z,11.50
2023-03-15T02:12:20.783Z,10.70
2023-03-15T02:14:50.734Z,10.90
2023-03-15T02:17:20.054Z,9.50
2023-03-15T02:19:51.510Z,14.40
2023-03-15T02:22:25.613Z,11.80
2023-03-15T02:25:06.122Z,16.70
2023-03-15T02:27:34.676Z,11.60
2023-03-15T02:30:05.943Z,9.40
2023-03-15T02:32:34.285Z,9.90
2023-03-15T02:35:03.051Z,16.30
2023-03-15T02:37:31.654Z,12.30
2023-03-15T02:39:59.603Z,11.40
2023-03-15T02:42:27.980Z,18.70
2023-03-15T02:44:58.206Z,9.40
2023-03-15T02:47:27.778Z,9.50
2023-03-15T02:49:57.112Z,13.10
2023-03-15T02:52:26.587Z,14.00
2023-03-15T02:54:54.641Z,12.60
2023-03-15T02:57:22.613Z,11.40
2023-03-15T02:59:51.184Z,12.40
2023-03-15T03:02:22.194Z,11.80
2023-03-15T03:04:50.168Z,12.20
2023-03-15T03:07:19.517Z,12.40
2023-03-15T03:09:57.739Z,12.10
2023-03-15T03:12:27.148Z,17.40
2023-03-15T03:15:02.823Z,10.10
2023-03-15T03:17:37.463Z,12.10
2023-03-15T03:20:08.286Z,14.80
2023-03-15T03:22:37.329Z,14.00
2023-03-15T03:25:07.470Z,16.80
2023-03-15T03:27:40.662Z,15.00
2023-03-15T03:30:11.594Z,12.80
2023-03-15T03:32:41.372Z,11.00
2023-03-15T03:35:09.394Z,16.80
2023-03-15T03:37:37.576Z,13.60
2023-03-15T03:40:14.574Z,12.90
2023-03-15T03:42:42.936Z,11.60
2023-03-15T03:45:11.139Z,14.60
2023-03-15T03:47:44.732Z,11.70
2023-03-15T03:50:12.767Z,12.60
2023-03-15T03:52:46.861Z,13.80
2023-03-15T03:55:25.319Z,15.40
2023-03-15T03:57:54.391Z,13.60
2023-03-15T04:00:40.296Z,17.60
2023-03-15T04:03:08.564Z,13.90
2023-03-15T04:05:38.572Z,18.60
2023-03-15T04:08:06.627Z,12.90
2023-03-15T04:10:39.851Z,16.80
2023-03-15T04:13:08.826Z,14.20
2023-03-15T04:15:36.770Z,15.90
2023-03-15T04:18:08.789Z,11.40
2023-03-15T04:20:46.886Z,11.50
2023-03-15T04:23:15.856Z,18.20
2023-03-15T04:26:14.822Z,12.00
2023-03-15T04:29:11.362Z,12.50
2023-03-15T04:32:18.077Z,15.20
2023-03-15T04:34:52.452Z,13.20
2023-03-15T04:37:43.872Z,13.10
2023-03-15T04:40:24.241Z,12.80
2023-03-15T04:42:58.745Z,14.10
2023-03-15T04:45:41.776Z,13.40
2023-03-15T04:48:28.485Z,15.20
2023-03-15T04:51:18.924Z,14.10
2023-03-15T04:53:54.636Z,12.70
2023-03-15T04:56:45.320Z,14.40
2023-03-15T04:59:27.716Z,12.40
2023-03-15T05:02:27.956Z,13.10
2023-03-15T05:05:19.151Z,12.80
2023-03-15T05:08:07.587Z,12.70
2023-03-15T05:10:59.154Z,14.40
2023-03-15T05:13:46.441Z,16.20
2023-03-15T05:16:34.747Z,19.20
2023-03-15T05:19:21.959Z,15.60
2023-03-15T05:22:08.109Z,14.80
2023-03-15T05:24:51.129Z,17.30
2023-03-15T05:27:35.917Z,11.20
2023-03-15T05:30:16.411Z,13.50
2023-03-15T05:33:06.760Z,11.50
2023-03-15T05:35:44.981Z,14.50
2023-03-15T05:38:18.740Z,17.10
2023-03-15T05:43:50.901Z,15.50
2023-03-15T05:46:55.223Z,10.90
2023-03-15T05:49:46.501Z,12.90
2023-03-15T05:52:31.181Z,11.40
2023-03-15T05:55:23.468Z,21.60
2023-03-15T05:58:15.648Z,14.40
2023-03-15T06:00:53.981Z,14.10
2023-03-15T06:03:32.378Z,14.60
2023-03-15T06:06:05.249Z,18.00
2023-03-15T06:08:37.598Z,12.80
2023-03-15T06:11:06.614Z,18.10
2023-03-15T06:13:36.245Z,13.90
2023-03-15T06:16:10.296Z,16.20
2023-03-15T06:18:42.946Z,14.80
2023-03-15T06:21:10.956Z,14.00
2023-03-15T06:23:41.909Z,17.00
2023-03-15T06:26:11.338Z,17.20
2023-03-15T06:28:39.219Z,15.30
2023-03-15T06:31:08.438Z,13.60
2023-03-15T06:33:41.225Z,15.30
2023-03-15T06:36:11.017Z,18.40
2023-03-15T06:38:40.041Z,19.20
2023-03-15T06:41:08.752Z,18.00
2023-03-15T06:43:41.750Z,17.30
2023-03-15T06:46:09.768Z,19.50
2023-03-15T06:48:40.167Z,20.10
2023-03-15T06:51:09.425Z,17.10
2023-03-15T06:53:38.612Z,18.20
2023-03-15T06:56:07.366Z,20.90
2023-03-15T06:58:36.054Z,15.00
2023-03-15T07:01:04.159Z,13.10
2023-03-15T07:03:35.469Z,11.70
2023-03-15T07:06:03.521Z,17.50
2023-03-15T07:08:31.662Z,11.60
2023-03-15T07:10:59.668Z,12.00
2023-03-15T07:13:27.694Z,13.70
2023-03-15T07:15:58.718Z,15.20
2023-03-15T07:18:27.265Z,15.60
2023-03-15T07:20:58.801Z,15.20
2023-03-15T07:23:26.848Z,15.30
2023-03-15T07:25:55.691Z,14.40
2023-03-15T07:28:31.067Z,15.50
2023-03-15T07:31:03.215Z,13.60
2023-03-15T07:33:32.432Z,13.20
2023-03-15T07:36:06.429Z,13.10
2023-03-15T07:38:34.958Z,14.20
2023-03-15T07:41:04.184Z,16.80
2023-03-15T07:43:32.334Z,13.70
2023-03-15T07:46:09.169Z,10.80
2023-03-15T07:48:39.110Z,14.00
2023-03-15T07:51:07.670Z,14.90
2023-03-15T07:53:35.716Z,13.70
2023-03-15T07:56:04.380Z,20.30
2023-03-15T07:58:32.316Z,15.10
2023-03-15T08:01:00.699Z,11.80
2023-03-15T08:03:32.136Z,13.00
2023-03-15T08:06:00.663Z,16.30
2023-03-15T08:08:32.818Z,13.10
2023-03-15T08:11:01.873Z,16.30
2023-03-15T08:13:35.913Z,12.30
2023-03-15T08:16:09.649Z,9.30
2023-03-15T08:18:46.696Z,11.60
2023-03-15T08:21:15.845Z,11.90
2023-03-15T08:23:44.123Z,17.70
2023-03-15T08:26:16.850Z,11.00
2023-03-15T08:28:44.848Z,16.70
2023-03-15T08:31:14.212Z,11.50
2023-03-15T08:33:42.217Z,15.20
2023-03-15T08:36:12.390Z,13.90
2023-03-15T08:38:41.927Z,12.30
2023-03-15T08:41:10.779Z,13.00
2023-03-15T08:43:43.035Z,15.30
2023-03-15T08:46:11.205Z,10.00
2023-03-15T08:48:39.357Z,12.90
2023-03-15T08:51:09.151Z,14.00
2023-03-15T08:53:38.544Z,17.50
2023-03-15T08:56:13.372Z,18.90
2023-03-15T08:58:41.827Z,11.50
2023-03-15T09:01:13.188Z,11.50
2023-03-15T09:03:42.667Z,14.30
2023-03-15T09:06:10.700Z,15.20
2023-03-15T09:08:38.744Z,19.30
2023-03-15T09:11:07.449Z,18.10
2023-03-15T09:13:35.926Z,11.90
2023-03-15T09:16:08.043Z,12.00
2023-03-15T09:18:36.519Z,11.00
2023-03-15T09:21:05.292Z,11.60
2023-03-15T09:23:37.582Z,12.80
2023-03-15T09:26:05.816Z,14.30
2023-03-15T09:28:34.216Z,11.50
2023-03-15T09:31:06.672Z,12.40
2023-03-15T09:33:35.098Z,15.30
2023-03-15T09:36:03.276Z,10.70
2023-03-15T09:38:34.134Z,10.40
2023-03-15T09:41:03.979Z,10.00
2023-03-15T09:43:32.716Z,16.90
2023-03-15T09:46:16.371Z,12.10
2023-03-15T09:48:51.139Z,12.40
2023-03-15T09:51:36.316Z,11.40
2023-03-15T09:54:13.688Z,17.70
2023-03-15T09:56:42.206Z,12.60
2023-03-15T09:59:10.287Z,11.50
2023-03-15T10:01:40.952Z,15.30
2023-03-15T10:04:26.122Z,18.70
2023-03-15T10:06:55.336Z,15.80
2023-03-15T10:09:24.410Z,14.40
2023-03-15T10:12:11.907Z,13.60
2023-03-15T10:14:55.453Z,18.90
2023-03-15T10:17:35.366Z,12.60
2023-03-15T10:20:13.678Z,10.60
2023-03-15T10:22:43.011Z,13.00
2023-03-15T10:25:11.718Z,16.00
2023-03-15T10:27:52.297Z,14.30
2023-03-15T10:30:38.979Z,15.90
2023-03-15T10:33:26.372Z,14.20
2023-03-15T10:36:01.274Z,13.20
2023-03-15T10:38:36.445Z,12.70
2023-03-15T10:41:05.528Z,12.20
2023-03-15T10:43:38.151Z,11.80
2023-03-15T10:46:07.289Z,13.50
2023-03-15T10:48:39.675Z,14.00
2023-03-15T10:51:16.478Z,14.10
2023-03-15T10:54:00.115Z,12.90
2023-03-15T10:56:35.190Z,10.50
2023-03-15T10:59:12.410Z,12.50
2023-03-15T11:05:04.361Z,14.90
2023-03-15T11:07:34.845Z,13.50
2023-03-15T11:10:04.262Z,11.30
2023-03-15T11:12:35.218Z,10.80
2023-03-15T11:15:04.335Z,12.90
2023-03-15T11:17:33.635Z,11.50
2023-03-15T11:20:16.452Z,15.10
2023-03-15T11:22:50.836Z,11.00
2023-03-15T11:25:23.356Z,10.70
2023-03-15T11:27:53.825Z,8.50
2023-03-15T11:30:29.673Z,9.80
2023-03-15T11:33:03.864Z,8.50
2023-03-15T11:35:35.644Z,13.30
2023-03-15T11:38:15.335Z,13.30
2023-03-15T11:40:46.021Z,12.80
2023-03-15T11:43:18.135Z,14.00
2023-03-15T11:46:05.119Z,9.10
2023-03-15T11:48:49.060Z,9.60
2023-03-15T11:51:17.004Z,11.40
2023-03-15T11:54:04.194Z,12.80
2023-03-15T11:57:03.176Z,9.70
2023-03-15T11:59:36.854Z,11.20
2023-03-15T12:02:10.982Z,9.50
2023-03-15T12:04:39.149Z,10.00
2023-03-15T12:07:16.176Z,9.50
2023-03-15T12:09:49.289Z,8.50
2023-03-15T12:12:26.992Z,7.90
2023-03-15T12:15:25.753Z,12.00
2023-03-15T12:18:00.167Z,11.70
2023-03-15T12:20:28.337Z,11.20
2023-03-15T12:23:05.492Z,11.90
2023-03-15T12:25:45.627Z,14.10
2023-03-15T12:28:26.654Z,10.80
2023-03-15T12:30:56.640Z,17.00
2023-03-15T12:33:24.958Z,13.80
2023-03-15T12:36:01.481Z,10.70
2023-03-15T12:38:35.683Z,9.30
2023-03-15T12:41:06.875Z,9.90
2023-03-15T12:43:44.394Z,10.80
2023-03-15T12:46:45.577Z,11.90
2023-03-15T12:49:28.442Z,13.10
2023-03-15T12:52:02.405Z,9.70
2023-03-15T12:54:37.479Z,11.20
2023-03-15T12:57:05.568Z,10.80
2023-03-15T12:59:33.800Z,10.70
2023-03-15T13:02:02.679Z,9.20
2023-03-15T13:04:34.392Z,7.40
2023-03-15T13:07:04.630Z,11.00
2023-03-15T13:09:32.604Z,13.60
2023-03-15T13:12:21.078Z,12.70
2023-03-15T13:14:55.419Z,11.70
2023-03-15T13:17:31.806Z,7.80
2023-03-15T13:20:21.632Z,10.00
2023-03-15T13:22:56.438Z,14.50
2023-03-15T13:25:26.628Z,8.80
2023-03-15T13:28:07.722Z,7.90
2023-03-15T13:30:37.988Z,11.50
2023-03-15T13:33:22.434Z,8.40
2023-03-15T13:35:54.108Z,8.10
2023-03-15T13:38:24.482Z,11.30
2023-03-15T13:40:57.708Z,8.80
2023-03-15T13:43:26.948Z,12.10
2023-03-15T13:45:58.218Z,9.00
2023-03-15T13:48:26.901Z,12.10
2023-03-15T13:50:55.736Z,9.90
2023-03-15T13:53:35.579Z,9.70
2023-03-15T13:56:08.441Z,11.20
2023-03-15T13:58:37.394Z,12.50
2023-03-15T14:01:07.251Z,11.30
2023-03-15T14:03:35.771Z,9.00
2023-03-15T14:06:06.856Z,6.90
2023-03-15T14:08:36.619Z,13.00
2023-03-15T14:11:12.402Z,12.90
2023-03-15T14:13:51.743Z,8.70
2023-03-15T14:16:49.886Z,9.40
2023-03-15T14:19:25.601Z,12.90
2023-03-15T14:21:57.120Z,15.10
2023-03-15T14:24:28.974Z,13.00
2023-03-15T14:26:58.496Z,14.60
2023-03-15T14:29:33.320Z,11.80
2023-03-15T14:32:09.084Z,15.80
2023-03-15T14:34:45.072Z,13.20
2023-03-15T14:37:34.378Z,17.00
2023-03-15T14:40:21.256Z,15.80
2023-03-15T14:42:52.722Z,15.30
2023-03-15T14:45:22.370Z,30.20
2023-03-15T14:47:57.202Z,13.70
2023-03-15T14:50:28.336Z,17.80
2023-03-15T14:52:56.998Z,23.30
2023-03-15T14:55:30.110Z,14.20
2023-03-15T14:57:58.162Z,17.40
2023-03-15T15:00:27.138Z,19.70
2023-03-15T15:02:56.605Z,13.90
2023-03-15T15:05:25.986Z,16.30
2023-03-15T15:07:57.720Z,16.50
2023-03-15T15:10:26.612Z,18.00
2023-03-15T15:13:06.106Z,18.80
2023-03-15T15:15:54.005Z,14.60
2023-03-15T15:18:24.165Z,21.70
2023-03-15T15:21:00.832Z,13.40
2023-03-15T15:23:54.878Z,17.70
2023-03-15T15:26:27.431Z,16.20
2023-03-15T15:28:57.639Z,27.20
2023-03-15T15:31:27.369Z,23.00
2023-03-15T15:34:03.823Z,17.60
2023-03-15T15:36:33.964Z,21.40
2023-03-15T15:39:06.514Z,16.70
2023-03-15T15:41:37.289Z,20.80
2023-03-15T15:44:27.109Z,15.40
2023-03-15T15:46:55.861Z,17.50
2023-03-15T15:49:24.624Z,22.40
2023-03-15T15:51:54.679Z,22.70
2023-03-15T15:54:31.821Z,27.50
2023-03-15T15:57:02.702Z,26.90
2023-03-15T15:59:31.168Z,24.80
2023-03-15T16:02:02.568Z,24.40
2023-03-15T16:04:36.606Z,28.20
2023-03-15T16:07:05.561Z,23.40
2023-03-15T16:09:37.627Z,28.60
2023-03-15T16:12:15.405Z,29.90
2023-03-15T16:14:46.883Z,23.00
2023-03-15T16:17:18.755Z,25.70
2023-03-15T16:19:49.640Z,24.00
2023-03-15T16:22:18.372Z,19.50
2023-03-15T16:24:54.870Z,23.60
2023-03-15T16:30:08.439Z,22.70
2023-03-15T16:32:44.441Z,20.10
2023-03-15T16:35:17.891Z,24.60
2023-03-15T16:37:46.935Z,29.40
2023-03-15T16:40:24.609Z,29.50
2023-03-15T16:42:56.219Z,26.70
2023-03-15T16:45:32.003Z,20.50
2023-03-15T16:48:03.292Z,21.40
2023-03-15T16:50:35.071Z,20.90
2023-03-15T16:53:05.841Z,23.70
2023-03-15T16:55:33.982Z,24.20
2023-03-15T16:58:02.949Z,20.40
2023-03-15T17:00:32.504Z,25.50
2023-03-15T17:03:01.721Z,26.60
2023-03-15T17:05:31.876Z,23.30
2023-03-15T17:08:02.810Z,26.60
2023-03-15T17:10:31.927Z,24.10
2023-03-15T17:13:02.891Z,26.30
2023-03-15T17:15:31.314Z,33.30
2023-03-15T17:18:00.498Z,26.30
2023-03-15T17:20:30.803Z,27.10
2023-03-15T17:23:04.067Z,31.10
2023-03-15T17:25:33.862Z,20.10
2023-03-15T17:28:03.083Z,24.20
2023-03-15T17:30:37.069Z,30.90
2023-03-15T17:33:07.772Z,37.40
2023-03-15T17:35:37.883Z,36.80
2023-03-15T17:38:06.624Z,62.70
2023-03-15T17:40:35.660Z,105.10
2023-03-15T17:43:04.601Z,106.90
2023-03-15T17:45:34.510Z,77.40
2023-03-15T17:48:05.540Z,74.50
2023-03-15T17:50:33.957Z,72.30
2023-03-15T17:53:03.691Z,89.40
2023-03-15T17:55:35.140Z,97.10
2023-03-15T17:58:19.933Z,98.20
2023-03-15T18:00:50.017Z,53.20
2023-03-15T18:03:18.143Z,60.80
2023-03-15T18:05:46.320Z,45.40
2023-03-15T18:08:22.724Z,37.60
2023-03-15T18:10:50.951Z,41.40
2023-03-15T18:13:22.593Z,33.50
2023-03-15T18:15:59.785Z,39.90
2023-03-15T18:18:33.997Z,36.80
2023-03-15T18:21:04.309Z,34.40
2023-03-15T18:23:37.068Z,36.80
2023-03-15T18:26:05.354Z,58.40
2023-03-15T18:28:37.007Z,92.60
2023-03-15T18:31:12.779Z,78.30
2023-03-15T18:33:41.061Z,58.30
2023-03-15T18:36:20.838Z,101.10
2023-03-15T18:38:49.255Z,54.80
2023-03-15T18:41:21.207Z,47.20
2023-03-15T18:43:53.910Z,40.70
2023-03-15T18:46:24.713Z,46.40
2023-03-15T18:49:02.030Z,36.60
2023-03-15T18:51:35.417Z,40.00
2023-03-15T18:54:10.155Z,38.20
2023-03-15T18:56:44.886Z,39.60
2023-03-15T19:01:49.506Z,49.20
2023-03-15T19:04:21.439Z,45.20
2023-03-15T19:06:50.849Z,42.60
2023-03-15T19:09:23.976Z,42.80
2023-03-15T19:11:52.281Z,40.60
2023-03-15T19:14:23.956Z,41.10
2023-03-15T19:16:53.890Z,34.40
2023-03-15T19:19:29.457Z,31.30
2023-03-15T19:22:06.401Z,36.70
2023-03-15T19:24:38.401Z,41.80
2023-03-15T19:27:06.441Z,57.90
2023-03-15T19:29:34.612Z,71.20
2023-03-15T19:32:03.793Z,63.80
2023-03-15T19:34:32.933Z,88.60
2023-03-15T19:37:01.907Z,89.00
2023-03-15T19:39:30.007Z,98.80
2023-03-15T19:41:58.099Z,95.20
2023-03-15T19:44:27.378Z,85.30
2023-03-15T19:46:58.453Z,66.70
2023-03-15T19:49:26.897Z,53.00
2023-03-15T19:51:55.369Z,45.50
2023-03-15T19:54:23.716Z,37.50
2023-03-15T19:56:52.175Z,37.60
2023-03-15T19:59:20.184Z,44.50
2023-03-15T20:01:49.456Z,55.40
2023-03-15T20:04:17.615Z,56.20
2023-03-15T20:06:46.030Z,71.70
2023-03-15T20:09:14.290Z,83.90
2023-03-15T20:11:49.856Z,83.70
2023-03-15T20:14:20.629Z,80.00
2023-03-15T20:16:48.727Z,77.70
2023-03-15T20:19:23.756Z,87.20
2023-03-15T20:21:52.570Z,74.20
2023-03-15T20:24:20.523Z,71.70
2023-03-15T20:26:51.826Z,58.20
2023-03-15T20:29:19.853Z,70.30
2023-03-15T20:31:48.651Z,55.00
2023-03-15T20:34:17.087Z,46.90
2023-03-15T20:36:45.417Z,43.00
2023-03-15T20:39:13.389Z,38.80
2023-03-15T20:41:42.703Z,39.30
2023-03-15T20:44:10.755Z,43.80
2023-03-15T20:46:40.105Z,47.10
2023-03-15T20:49:08.540Z,60.40
2023-03-15T20:51:38.874Z,81.70
2023-03-15T20:54:06.826Z,84.90
2023-03-15T20:56:36.900Z,84.50
2023-03-15T20:59:04.948Z,78.30
2023-03-15T21:01:39.572Z,82.20
2023-03-15T21:04:07.593Z,69.60
2023-03-15T21:06:35.627Z,64.40
2023-03-15T21:09:06.481Z,66.10
2023-03-15T21:11:34.499Z,57.60
2023-03-15T21:14:02.799Z,63.70
2023-03-15T21:16:33.414Z,56.10
2023-03-15T21:19:01.667Z,67.60
2023-03-15T21:21:32.997Z,57.30
2023-03-15T21:24:02.311Z,52.10
2023-03-15T21:26:30.550Z,50.50
2023-03-15T21:29:05.590Z,44.70
2023-03-15T21:31:36.663Z,42.40
2023-03-15T21:34:05.223Z,40.20
2023-03-15T21:36:34.137Z,46.10
2023-03-15T21:39:02.154Z,52.20
2023-03-15T21:41:35.197Z,61.30
2023-03-15T21:44:04.990Z,60.60
2023-03-15T21:46:33.922Z,54.30
2023-03-15T21:49:10.574Z,59.40
2023-03-15T21:51:38.945Z,52.40
2023-03-15T21:54:09.133Z,47.40
2023-03-15T21:56:39.787Z,44.70
2023-03-15T21:59:10.398Z,45.70
2023-03-15T22:01:43.375Z,43.20
2023-03-15T22:04:11.628Z,42.20
2023-03-15T22:06:39.624Z,42.10
2023-03-15T22:09:11.230Z,40.10
2023-03-15T22:11:42.260Z,44.50
2023-03-15T22:14:13.341Z,38.00
2023-03-15T22:16:43.144Z,34.80
2023-03-15T22:19:18.185Z,37.30
2023-03-15T22:21:48.992Z,39.30
2023-03-15T22:24:17.228Z,41.70
2023-03-15T22:26:48.594Z,38.70
2023-03-15T22:29:16.577Z,40.30
2023-03-15T22:31:44.592Z,40.50
2023-03-15T22:34:13.170Z,39.20
2023-03-15T22:36:42.939Z,43.30
2023-03-15T22:39:14.506Z,37.20
2023-03-15T22:41:45.661Z,35.00
2023-03-15T22:44:20.600Z,33.80
2023-03-15T22:46:52.411Z,38.80
2023-03-15T22:49:26.308Z,40.70
2023-03-15T22:51:58.221Z,37.20
2023-03-15T22:54:26.256Z,41.00
2023-03-15T22:56:56.178Z,48.70
2023-03-15T22:59:29.129Z,45.20
2023-03-15T23:02:05.438Z,38.20
2023-03-15T23:04:38.833Z,47.00
2023-03-15T23:07:09.717Z,42.20
2023-03-15T23:09:43.173Z,41.90
2023-03-15T23:12:18.125Z,44.40
2023-03-15T23:17:34.962Z,42.80
2023-03-15T23:20:09.115Z,41.70
2023-03-15T23:22:37.639Z,43.30
2023-03-15T23:25:05.916Z,41.40
2023-03-15T23:27:33.864Z,41.80
2023-03-15T23:30:04.809Z,46.40
2023-03-15T23:32:36.559Z,35.90
2023-03-15T23:35:11.643Z,37.80
2023-03-15T23:37:41.138Z,33.60
2023-03-15T23:40:15.269Z,37.20
2023-03-15T23:42:45.153Z,47.80
2023-03-15T23:45:15.354Z,38.90
2023-03-15T23:47:46.927Z,41.40
2023-03-15T23:50:15.871Z,38.00
2023-03-15T23:52:43.847Z,40.80
2023-03-15T23:55:12.568Z,39.30
2023-03-15T23:57:41.491Z,41.00
